sensor_id;sensor_type;location;lat;lon;timestamp;P1;durP1;ratioP1;P2;durP2;ratioP2
55308;SDS011;44028;51.358;19.876;2022-12-05T00:01:39;44.83;;;19.48;;
55308;SDS011;44028;51.358;19.876;2022-12-05T00:04:07;42.70;;;17.88;;
55308;SDS011;44028;51.358;19.876;2022-12-05T00:06:35;41.30;;;16.85;;
55308;SDS011;44028;51.358;19.876;2022-12-05T00:09:02;46.92;;;18.02;;
55308;SDS011;44028;51.358;19.876;2022-12-05T00:11:30;46.65;;;18.48;;
55308;SDS011;44028;51.358;19.876;2022-12-05T00:13:57;40.83;;;17.20;;
55308;SDS011;44028;51.358;19.876;2022-12-05T00:16:25;35.22;;;14.85;;
55308;SDS011;44028;51.358;19.876;2022-12-05T00:18:52;37.17;;;16.65;;
55308;SDS011;44028;51.358;19.876;2022-12-05T00:21:20;34.63;;;14.38;;
55308;SDS011;44028;51.358;19.876;2022-12-05T00:23:47;37.58;;;16.63;;
55308;SDS011;44028;51.358;19.876;2022-12-05T00:26:14;39.17;;;16.08;;
55308;SDS011;44028;51.358;19.876;2022-12-05T00:28:41;34.42;;;15.20;;
55308;SDS011;44028;51.358;19.876;2022-12-05T00:31:09;41.20;;;16.45;;
55308;SDS011;44028;51.358;19.876;2022-12-05T00:33:36;38.03;;;16.13;;
55308;SDS011;44028;51.358;19.876;2022-12-05T00:36:04;31.17;;;13.32;;
55308;SDS011;44028;51.358;19.876;2022-12-05T00:38:31;33.17;;;14.82;;
55308;SDS011;44028;51.358;19.876;2022-12-05T00:41:08;33.72;;;14.38;;
55308;SDS011;44028;51.358;19.876;2022-12-05T00:43:35;39.58;;;17.35;;
55308;SDS011;44028;51.358;19.876;2022-12-05T00:46:05;37.42;;;15.30;;
55308;SDS011;44028;51.358;19.876;2022-12-05T00:48:32;36.63;;;16.58;;
55308;SDS011;44028;51.358;19.876;2022-12-05T00:51:06;35.45;;;14.85;;
55308;SDS011;44028;51.358;19.876;2022-12-05T00:53:33;37.57;;;16.17;;
55308;SDS011;44028;51.358;19.876;2022-12-05T00:56:01;32.97;;;14.95;;
55308;SDS011;44028;51.358;19.876;2022-12-05T00:58:29;33.33;;;14.98;;
55308;SDS011;44028;51.358;19.876;2022-12-05T01:00:55;36.55;;;15.88;;
55308;SDS011;44028;51.358;19.876;2022-12-05T01:03:22;33.53;;;15.00;;
55308;SDS011;44028;51.358;19.876;2022-12-05T01:05:49;33.30;;;15.57;;
55308;SDS011;44028;51.358;19.876;2022-12-05T01:08:17;25.83;;;12.75;;
55308;SDS011;44028;51.358;19.876;2022-12-05T01:10:50;33.63;;;14.77;;
55308;SDS011;44028;51.358;19.876;2022-12-05T01:13:17;37.13;;;15.88;;
55308;SDS011;44028;51.358;19.876;2022-12-05T01:15:44;36.58;;;14.10;;
55308;SDS011;44028;51.358;19.876;2022-12-05T01:18:10;33.17;;;14.52;;
55308;SDS011;44028;51.358;19.876;2022-12-05T01:20:38;35.83;;;15.35;;
55308;SDS011;44028;51.358;19.876;2022-12-05T01:23:05;37.03;;;15.90;;
55308;SDS011;44028;51.358;19.876;2022-12-05T01:25:33;29.80;;;13.93;;
55308;SDS011;44028;51.358;19.876;2022-12-05T01:27:59;32.50;;;13.98;;
55308;SDS011;44028;51.358;19.876;2022-12-05T01:30:26;32.05;;;14.95;;
55308;SDS011;44028;51.358;19.876;2022-12-05T01:32:53;35.65;;;15.65;;
55308;SDS011;44028;51.358;19.876;2022-12-05T01:35:19;34.90;;;14.50;;
55308;SDS011;44028;51.358;19.876;2022-12-05T01:37:46;31.98;;;15.18;;
55308;SDS011;44028;51.358;19.876;2022-12-05T01:40:13;34.90;;;14.77;;
55308;SDS011;44028;51.358;19.876;2022-12-05T01:42:39;34.92;;;13.95;;
55308;SDS011;44028;51.358;19.876;2022-12-05T01:45:09;32.17;;;13.63;;
55308;SDS011;44028;51.358;19.876;2022-12-05T01:47:39;30.33;;;14.38;;
55308;SDS011;44028;51.358;19.876;2022-12-05T01:50:06;35.20;;;14.95;;
55308;SDS011;44028;51.358;19.876;2022-12-05T01:52:33;32.00;;;13.27;;
55308;SDS011;44028;51.358;19.876;2022-12-05T01:55:02;31.90;;;14.70;;
55308;SDS011;44028;51.358;19.876;2022-12-05T01:57:30;32.25;;;14.50;;
55308;SDS011;44028;51.358;19.876;2022-12-05T02:00:01;31.70;;;13.80;;
55308;SDS011;44028;51.358;19.876;2022-12-05T02:02:28;32.80;;;14.38;;
55308;SDS011;44028;51.358;19.876;2022-12-05T02:05:01;29.98;;;13.55;;
55308;SDS011;44028;51.358;19.876;2022-12-05T02:07:29;30.60;;;13.50;;
55308;SDS011;44028;51.358;19.876;2022-12-05T02:09:56;31.25;;;13.45;;
55308;SDS011;44028;51.358;19.876;2022-12-05T02:12:23;33.38;;;15.63;;
55308;SDS011;44028;51.358;19.876;2022-12-05T02:14:58;31.17;;;14.38;;
55308;SDS011;44028;51.358;19.876;2022-12-05T02:20:01;31.45;;;14.18;;
55308;SDS011;44028;51.358;19.876;2022-12-05T02:30:16;31.73;;;13.65;;
55308;SDS011;44028;51.358;19.876;2022-12-05T02:32:50;30.10;;;14.75;;
55308;SDS011;44028;51.358;19.876;2022-12-05T02:37:51;29.65;;;12.98;;
55308;SDS011;44028;51.358;19.876;2022-12-05T02:40:24;30.73;;;13.27;;
55308;SDS011;44028;51.358;19.876;2022-12-05T02:42:57;32.97;;;14.23;;
55308;SDS011;44028;51.358;19.876;2022-12-05T02:45:26;30.33;;;14.88;;
55308;SDS011;44028;51.358;19.876;2022-12-05T02:47:54;32.88;;;14.18;;
55308;SDS011;44028;51.358;19.876;2022-12-05T02:50:22;32.60;;;15.00;;
55308;SDS011;44028;51.358;19.876;2022-12-05T02:52:49;37.90;;;16.85;;
55308;SDS011;44028;51.358;19.876;2022-12-05T02:55:17;29.83;;;12.75;;
55308;SDS011;44028;51.358;19.876;2022-12-05T02:57:44;31.60;;;13.82;;
55308;SDS011;44028;51.358;19.876;2022-12-05T03:00:12;24.27;;;11.10;;
55308;SDS011;44028;51.358;19.876;2022-12-05T03:02:39;31.50;;;14.38;;
55308;SDS011;44028;51.358;19.876;2022-12-05T03:07:47;35.42;;;14.00;;
55308;SDS011;44028;51.358;19.876;2022-12-05T03:10:16;34.72;;;15.65;;
55308;SDS011;44028;51.358;19.876;2022-12-05T03:12:46;37.53;;;14.50;;
55308;SDS011;44028;51.358;19.876;2022-12-05T03:15:15;38.47;;;14.90;;
55308;SDS011;44028;51.358;19.876;2022-12-05T03:17:45;30.73;;;13.98;;
55308;SDS011;44028;51.358;19.876;2022-12-05T03:20:48;29.08;;;13.52;;
55308;SDS011;44028;51.358;19.876;2022-12-05T03:25:34;36.78;;;15.25;;
55308;SDS011;44028;51.358;19.876;2022-12-05T03:28:05;35.63;;;14.95;;
55308;SDS011;44028;51.358;19.876;2022-12-05T03:30:34;33.83;;;15.32;;
55308;SDS011;44028;51.358;19.876;2022-12-05T03:38:05;35.35;;;15.27;;
55308;SDS011;44028;51.358;19.876;2022-12-05T03:40:36;29.27;;;12.48;;
55308;SDS011;44028;51.358;19.876;2022-12-05T03:43:28;33.58;;;14.85;;
55308;SDS011;44028;51.358;19.876;2022-12-05T03:50:56;32.70;;;12.95;;
55308;SDS011;44028;51.358;19.876;2022-12-05T03:53:28;32.42;;;14.02;;
55308;SDS011;44028;51.358;19.876;2022-12-05T03:58:37;36.30;;;16.20;;
55308;SDS011;44028;51.358;19.876;2022-12-05T04:01:05;34.15;;;15.07;;
55308;SDS011;44028;51.358;19.876;2022-12-05T04:03:38;35.10;;;14.75;;
55308;SDS011;44028;51.358;19.876;2022-12-05T04:08:47;28.13;;;12.65;;
55308;SDS011;44028;51.358;19.876;2022-12-05T04:11:18;33.45;;;14.27;;
55308;SDS011;44028;51.358;19.876;2022-12-05T04:13:47;33.78;;;15.35;;
55308;SDS011;44028;51.358;19.876;2022-12-05T04:19:05;33.80;;;15.68;;
55308;SDS011;44028;51.358;19.876;2022-12-05T04:21:35;31.38;;;14.32;;
55308;SDS011;44028;51.358;19.876;2022-12-05T04:24:07;31.75;;;14.45;;
55308;SDS011;44028;51.358;19.876;2022-12-05T04:26:47;28.30;;;13.10;;
55308;SDS011;44028;51.358;19.876;2022-12-05T04:29:19;30.17;;;13.98;;
55308;SDS011;44028;51.358;19.876;2022-12-05T04:31:48;33.50;;;15.43;;
55308;SDS011;44028;51.358;19.876;2022-12-05T04:34:17;37.50;;;15.80;;
55308;SDS011;44028;51.358;19.876;2022-12-05T04:36:53;33.20;;;15.00;;
55308;SDS011;44028;51.358;19.876;2022-12-05T04:42:06;43.22;;;18.08;;
55308;SDS011;44028;51.358;19.876;2022-12-05T04:44:37;39.70;;;17.40;;
55308;SDS011;44028;51.358;19.876;2022-12-05T04:47:06;36.97;;;16.42;;
55308;SDS011;44028;51.358;19.876;2022-12-05T04:49:34;34.58;;;14.25;;
55308;SDS011;44028;51.358;19.876;2022-12-05T04:52:02;33.00;;;14.57;;
55308;SDS011;44028;51.358;19.876;2022-12-05T04:54:52;40.47;;;16.05;;
55308;SDS011;44028;51.358;19.876;2022-12-05T04:57:18;46.90;;;18.48;;
55308;SDS011;44028;51.358;19.876;2022-12-05T04:59:47;32.85;;;14.05;;
55308;SDS011;44028;51.358;19.876;2022-12-05T05:02:15;34.75;;;14.40;;
55308;SDS011;44028;51.358;19.876;2022-12-05T05:04:48;38.65;;;15.25;;
55308;SDS011;44028;51.358;19.876;2022-12-05T05:07:16;35.63;;;15.18;;
55308;SDS011;44028;51.358;19.876;2022-12-05T05:09:43;31.27;;;14.18;;
55308;SDS011;44028;51.358;19.876;2022-12-05T05:12:10;32.08;;;15.43;;
55308;SDS011;44028;51.358;19.876;2022-12-05T05:14:44;41.05;;;18.00;;
55308;SDS011;44028;51.358;19.876;2022-12-05T05:17:11;38.55;;;16.38;;
55308;SDS011;44028;51.358;19.876;2022-12-05T05:19:37;33.65;;;14.05;;
55308;SDS011;44028;51.358;19.876;2022-12-05T05:22:04;33.92;;;14.98;;
55308;SDS011;44028;51.358;19.876;2022-12-05T05:24:31;34.40;;;15.18;;
55308;SDS011;44028;51.358;19.876;2022-12-05T05:26:57;37.75;;;15.57;;
55308;SDS011;44028;51.358;19.876;2022-12-05T05:29:24;31.33;;;13.63;;
55308;SDS011;44028;51.358;19.876;2022-12-05T05:31:50;36.58;;;15.25;;
55308;SDS011;44028;51.358;19.876;2022-12-05T05:34:17;31.48;;;13.20;;
55308;SDS011;44028;51.358;19.876;2022-12-05T05:36:44;40.50;;;15.85;;
55308;SDS011;44028;51.358;19.876;2022-12-05T05:39:12;43.00;;;17.75;;
55308;SDS011;44028;51.358;19.876;2022-12-05T05:41:38;36.67;;;16.13;;
55308;SDS011;44028;51.358;19.876;2022-12-05T05:44:05;39.55;;;17.45;;
55308;SDS011;44028;51.358;19.876;2022-12-05T05:46:33;38.70;;;15.68;;
55308;SDS011;44028;51.358;19.876;2022-12-05T05:49:00;48.28;;;21.20;;
55308;SDS011;44028;51.358;19.876;2022-12-05T05:51:27;39.78;;;18.42;;
55308;SDS011;44028;51.358;19.876;2022-12-05T05:53:55;40.50;;;19.20;;
55308;SDS011;44028;51.358;19.876;2022-12-05T05:56:22;53.70;;;25.75;;
55308;SDS011;44028;51.358;19.876;2022-12-05T05:58:59;53.03;;;19.35;;
55308;SDS011;44028;51.358;19.876;2022-12-05T06:01:27;63.13;;;21.27;;
55308;SDS011;44028;51.358;19.876;2022-12-05T06:03:53;68.63;;;22.50;;
55308;SDS011;44028;51.358;19.876;2022-12-05T06:06:20;52.47;;;20.30;;
55308;SDS011;44028;51.358;19.876;2022-12-05T06:08:47;44.58;;;17.85;;
55308;SDS011;44028;51.358;19.876;2022-12-05T06:11:18;50.30;;;21.90;;
55308;SDS011;44028;51.358;19.876;2022-12-05T06:13:54;40.05;;;16.50;;
55308;SDS011;44028;51.358;19.876;2022-12-05T06:16:21;34.55;;;14.57;;
55308;SDS011;44028;51.358;19.876;2022-12-05T06:18:48;38.38;;;16.90;;
55308;SDS011;44028;51.358;19.876;2022-12-05T06:21:17;35.85;;;15.15;;
55308;SDS011;44028;51.358;19.876;2022-12-05T06:23:44;78.60;;;44.65;;
55308;SDS011;44028;51.358;19.876;2022-12-05T06:26:12;109.40;;;64.07;;
55308;SDS011;44028;51.358;19.876;2022-12-05T06:28:39;52.60;;;26.15;;
55308;SDS011;44028;51.358;19.876;2022-12-05T06:31:10;56.92;;;29.75;;
55308;SDS011;44028;51.358;19.876;2022-12-05T06:33:37;49.30;;;26.45;;
55308;SDS011;44028;51.358;19.876;2022-12-05T06:36:05;47.63;;;21.42;;
55308;SDS011;44028;51.358;19.876;2022-12-05T06:38:32;45.55;;;21.75;;
55308;SDS011;44028;51.358;19.876;2022-12-05T06:41:06;85.32;;;31.90;;
55308;SDS011;44028;51.358;19.876;2022-12-05T06:43:32;121.78;;;45.47;;
55308;SDS011;44028;51.358;19.876;2022-12-05T06:46:03;109.30;;;45.00;;
55308;SDS011;44028;51.358;19.876;2022-12-05T06:48:30;72.07;;;25.45;;
55308;SDS011;44028;51.358;19.876;2022-12-05T06:50:56;71.93;;;26.65;;
55308;SDS011;44028;51.358;19.876;2022-12-05T06:53:23;61.97;;;23.77;;
55308;SDS011;44028;51.358;19.876;2022-12-05T06:55:56;54.45;;;22.27;;
55308;SDS011;44028;51.358;19.876;2022-12-05T06:58:23;141.60;;;45.08;;
55308;SDS011;44028;51.358;19.876;2022-12-05T07:00:50;54.28;;;20.55;;
55308;SDS011;44028;51.358;19.876;2022-12-05T07:03:43;84.80;;;30.63;;
55308;SDS011;44028;51.358;19.876;2022-12-05T07:06:10;56.85;;;23.23;;
55308;SDS011;44028;51.358;19.876;2022-12-05T07:08:37;94.05;;;35.22;;
55308;SDS011;44028;51.358;19.876;2022-12-05T07:11:03;67.68;;;31.48;;
55308;SDS011;44028;51.358;19.876;2022-12-05T07:13:30;60.65;;;29.13;;
55308;SDS011;44028;51.358;19.876;2022-12-05T07:15:57;59.03;;;26.52;;
55308;SDS011;44028;51.358;19.876;2022-12-05T07:18:26;67.65;;;34.15;;
55308;SDS011;44028;51.358;19.876;2022-12-05T07:20:57;58.10;;;25.13;;
55308;SDS011;44028;51.358;19.876;2022-12-05T07:23:41;59.88;;;24.02;;
55308;SDS011;44028;51.358;19.876;2022-12-05T07:26:08;64.40;;;26.17;;
55308;SDS011;44028;51.358;19.876;2022-12-05T07:28:36;52.45;;;21.58;;
55308;SDS011;44028;51.358;19.876;2022-12-05T07:31:03;48.42;;;19.70;;
55308;SDS011;44028;51.358;19.876;2022-12-05T07:33:30;42.83;;;18.27;;
55308;SDS011;44028;51.358;19.876;2022-12-05T07:35:58;36.63;;;16.52;;
55308;SDS011;44028;51.358;19.876;2022-12-05T07:38:25;50.13;;;21.40;;
55308;SDS011;44028;51.358;19.876;2022-12-05T07:40:51;44.42;;;19.70;;
55308;SDS011;44028;51.358;19.876;2022-12-05T07:43:18;64.00;;;24.17;;
55308;SDS011;44028;51.358;19.876;2022-12-05T07:45:44;44.95;;;18.95;;
55308;SDS011;44028;51.358;19.876;2022-12-05T07:48:11;42.33;;;17.48;;
55308;SDS011;44028;51.358;19.876;2022-12-05T07:50:43;56.25;;;23.20;;
55308;SDS011;44028;51.358;19.876;2022-12-05T07:53:10;44.08;;;18.70;;
55308;SDS011;44028;51.358;19.876;2022-12-05T07:55:37;45.65;;;17.48;;
55308;SDS011;44028;51.358;19.876;2022-12-05T07:58:03;57.42;;;20.77;;
55308;SDS011;44028;51.358;19.876;2022-12-05T08:00:30;70.45;;;27.10;;
55308;SDS011;44028;51.358;19.876;2022-12-05T08:02:57;51.17;;;21.40;;
55308;SDS011;44028;51.358;19.876;2022-12-05T08:05:24;53.72;;;20.60;;
55308;SDS011;44028;51.358;19.876;2022-12-05T08:07:50;71.78;;;30.92;;
55308;SDS011;44028;51.358;19.876;2022-12-05T08:10:17;83.55;;;29.50;;
55308;SDS011;44028;51.358;19.876;2022-12-05T08:12:44;49.75;;;18.67;;
55308;SDS011;44028;51.358;19.876;2022-12-05T08:15:10;69.22;;;26.30;;
55308;SDS011;44028;51.358;19.876;2022-12-05T08:17:37;58.03;;;21.75;;
55308;SDS011;44028;51.358;19.876;2022-12-05T08:20:03;45.67;;;19.10;;
55308;SDS011;44028;51.358;19.876;2022-12-05T08:22:30;58.20;;;23.05;;
55308;SDS011;44028;51.358;19.876;2022-12-05T08:24:57;48.60;;;20.20;;
55308;SDS011;44028;51.358;19.876;2022-12-05T08:27:23;58.10;;;22.73;;
55308;SDS011;44028;51.358;19.876;2022-12-05T08:29:50;56.13;;;22.33;;
55308;SDS011;44028;51.358;19.876;2022-12-05T08:32:18;69.05;;;26.27;;
55308;SDS011;44028;51.358;19.876;2022-12-05T08:34:45;55.67;;;21.50;;
55308;SDS011;44028;51.358;19.876;2022-12-05T08:37:12;44.10;;;19.13;;
55308;SDS011;44028;51.358;19.876;2022-12-05T08:39:39;71.10;;;27.45;;
55308;SDS011;44028;51.358;19.876;2022-12-05T08:42:06;68.15;;;24.55;;
55308;SDS011;44028;51.358;19.876;2022-12-05T08:44:32;50.17;;;20.50;;
55308;SDS011;44028;51.358;19.876;2022-12-05T08:46:59;43.97;;;19.58;;
55308;SDS011;44028;51.358;19.876;2022-12-05T08:49:25;54.88;;;23.13;;
55308;SDS011;44028;51.358;19.876;2022-12-05T08:51:53;84.63;;;29.92;;
55308;SDS011;44028;51.358;19.876;2022-12-05T08:54:20;58.05;;;23.33;;
55308;SDS011;44028;51.358;19.876;2022-12-05T08:56:49;44.92;;;20.00;;
55308;SDS011;44028;51.358;19.876;2022-12-05T08:59:15;53.50;;;22.70;;
55308;SDS011;44028;51.358;19.876;2022-12-05T09:01:42;53.30;;;23.08;;
55308;SDS011;44028;51.358;19.876;2022-12-05T09:04:09;57.33;;;26.38;;
55308;SDS011;44028;51.358;19.876;2022-12-05T09:06:36;39.97;;;17.70;;
55308;SDS011;44028;51.358;19.876;2022-12-05T09:09:06;55.50;;;25.58;;
55308;SDS011;44028;51.358;19.876;2022-12-05T09:11:34;56.05;;;25.40;;
55308;SDS011;44028;51.358;19.876;2022-12-05T09:14:01;44.65;;;20.27;;
55308;SDS011;44028;51.358;19.876;2022-12-05T09:16:29;58.70;;;27.90;;
55308;SDS011;44028;51.358;19.876;2022-12-05T09:19:02;52.20;;;23.05;;
55308;SDS011;44028;51.358;19.876;2022-12-05T09:21:29;57.58;;;25.20;;
55308;SDS011;44028;51.358;19.876;2022-12-05T09:23:57;57.80;;;23.95;;
55308;SDS011;44028;51.358;19.876;2022-12-05T09:26:24;65.53;;;26.65;;
55308;SDS011;44028;51.358;19.876;2022-12-05T09:28:51;77.93;;;29.35;;
55308;SDS011;44028;51.358;19.876;2022-12-05T09:31:19;93.28;;;35.88;;
55308;SDS011;44028;51.358;19.876;2022-12-05T09:33:47;80.40;;;28.70;;
55308;SDS011;44028;51.358;19.876;2022-12-05T09:36:15;97.03;;;33.60;;
55308;SDS011;44028;51.358;19.876;2022-12-05T09:38:42;69.13;;;24.67;;
55308;SDS011;44028;51.358;19.876;2022-12-05T09:44:16;70.05;;;25.27;;
55308;SDS011;44028;51.358;19.876;2022-12-05T09:46:50;86.07;;;33.75;;
55308;SDS011;44028;51.358;19.876;2022-12-05T09:49:17;159.15;;;48.92;;
55308;SDS011;44028;51.358;19.876;2022-12-05T09:51:45;83.82;;;28.95;;
55308;SDS011;44028;51.358;19.876;2022-12-05T09:54:20;113.90;;;43.45;;
55308;SDS011;44028;51.358;19.876;2022-12-05T09:56:48;132.30;;;47.15;;
55308;SDS011;44028;51.358;19.876;2022-12-05T09:59:15;49.45;;;20.52;;
55308;SDS011;44028;51.358;19.876;2022-12-05T10:16:51;70.85;;;29.70;;
55308;SDS011;44028;51.358;19.876;2022-12-05T10:19:25;168.43;;;53.72;;
55308;SDS011;44028;51.358;19.876;2022-12-05T10:21:55;76.82;;;30.73;;
55308;SDS011;44028;51.358;19.876;2022-12-05T10:27:01;89.82;;;32.65;;
55308;SDS011;44028;51.358;19.876;2022-12-05T10:29:34;94.72;;;40.88;;
55308;SDS011;44028;51.358;19.876;2022-12-05T10:32:48;103.13;;;39.50;;
55308;SDS011;44028;51.358;19.876;2022-12-05T10:34:51;72.53;;;29.45;;
55308;SDS011;44028;51.358;19.876;2022-12-05T10:37:21;116.20;;;43.05;;
55308;SDS011;44028;51.358;19.876;2022-12-05T10:39:48;98.55;;;37.38;;
55308;SDS011;44028;51.358;19.876;2022-12-05T10:42:25;54.33;;;23.27;;
55308;SDS011;44028;51.358;19.876;2022-12-05T10:44:55;94.60;;;36.75;;
55308;SDS011;44028;51.358;19.876;2022-12-05T10:47:23;146.43;;;48.60;;
55308;SDS011;44028;51.358;19.876;2022-12-05T10:49:50;148.98;;;49.05;;
55308;SDS011;44028;51.358;19.876;2022-12-05T10:52:17;91.72;;;32.30;;
55308;SDS011;44028;51.358;19.876;2022-12-05T10:54:48;117.60;;;42.78;;
55308;SDS011;44028;51.358;19.876;2022-12-05T10:57:20;57.05;;;24.58;;
55308;SDS011;44028;51.358;19.876;2022-12-05T10:59:47;76.03;;;30.02;;
55308;SDS011;44028;51.358;19.876;2022-12-05T11:02:20;59.88;;;22.92;;
55308;SDS011;44028;51.358;19.876;2022-12-05T11:04:48;95.50;;;33.58;;
55308;SDS011;44028;51.358;19.876;2022-12-05T11:07:23;90.93;;;32.40;;
55308;SDS011;44028;51.358;19.876;2022-12-05T11:09:49;83.40;;;30.42;;
55308;SDS011;44028;51.358;19.876;2022-12-05T11:12:35;59.47;;;24.50;;
55308;SDS011;44028;51.358;19.876;2022-12-05T11:17:33;63.05;;;25.42;;
55308;SDS011;44028;51.358;19.876;2022-12-05T11:20:01;70.50;;;29.50;;
55308;SDS011;44028;51.358;19.876;2022-12-05T11:22:31;85.47;;;29.08;;
55308;SDS011;44028;51.358;19.876;2022-12-05T11:24:58;64.93;;;25.42;;
55308;SDS011;44028;51.358;19.876;2022-12-05T11:27:29;60.55;;;26.33;;
55308;SDS011;44028;51.358;19.876;2022-12-05T11:29:57;49.38;;;20.80;;
55308;SDS011;44028;51.358;19.876;2022-12-05T11:32:26;48.95;;;20.35;;
55308;SDS011;44028;51.358;19.876;2022-12-05T11:37:37;77.07;;;30.88;;
55308;SDS011;44028;51.358;19.876;2022-12-05T11:40:12;49.03;;;20.33;;
55308;SDS011;44028;51.358;19.876;2022-12-05T11:42:51;54.03;;;23.98;;
55308;SDS011;44028;51.358;19.876;2022-12-05T11:50:40;58.22;;;26.77;;
55308;SDS011;44028;51.358;19.876;2022-12-05T11:55:48;58.28;;;25.63;;
55308;SDS011;44028;51.358;19.876;2022-12-05T12:29:23;59.45;;;24.50;;
55308;SDS011;44028;51.358;19.876;2022-12-05T12:34:40;61.63;;;23.85;;
55308;SDS011;44028;51.358;19.876;2022-12-05T12:42:38;71.38;;;27.00;;
55308;SDS011;44028;51.358;19.876;2022-12-05T12:45:15;112.68;;;42.13;;
55308;SDS011;44028;51.358;19.876;2022-12-05T12:47:50;49.83;;;21.48;;
55308;SDS011;44028;51.358;19.876;2022-12-05T12:50:21;49.83;;;21.58;;
55308;SDS011;44028;51.358;19.876;2022-12-05T12:52:52;50.92;;;20.45;;
55308;SDS011;44028;51.358;19.876;2022-12-05T12:55:41;53.45;;;23.27;;
55308;SDS011;44028;51.358;19.876;2022-12-05T13:03:22;51.13;;;27.05;;
55308;SDS011;44028;51.358;19.876;2022-12-05T13:05:54;67.05;;;30.77;;
55308;SDS011;44028;51.358;19.876;2022-12-05T13:08:28;75.72;;;32.75;;
55308;SDS011;44028;51.358;19.876;2022-12-05T13:10:58;72.72;;;36.60;;
55308;SDS011;44028;51.358;19.876;2022-12-05T13:13:26;74.72;;;36.72;;
55308;SDS011;44028;51.358;19.876;2022-12-05T13:15:59;70.07;;;32.70;;
55308;SDS011;44028;51.358;19.876;2022-12-05T13:18:27;98.10;;;38.40;;
55308;SDS011;44028;51.358;19.876;2022-12-05T13:20:57;75.55;;;30.35;;
55308;SDS011;44028;51.358;19.876;2022-12-05T13:23:29;211.50;;;61.88;;
55308;SDS011;44028;51.358;19.876;2022-12-05T13:25:57;84.30;;;35.10;;
55308;SDS011;44028;51.358;19.876;2022-12-05T13:30:58;224.88;;;66.47;;
55308;SDS011;44028;51.358;19.876;2022-12-05T13:33:41;127.00;;;44.97;;
55308;SDS011;44028;51.358;19.876;2022-12-05T13:38:48;180.25;;;57.28;;
55308;SDS011;44028;51.358;19.876;2022-12-05T13:41:39;168.85;;;57.35;;
55308;SDS011;44028;51.358;19.876;2022-12-05T13:44:24;348.52;;;100.50;;
55308;SDS011;44028;51.358;19.876;2022-12-05T13:46:53;232.75;;;72.45;;
55308;SDS011;44028;51.358;19.876;2022-12-05T13:49:24;292.25;;;87.53;;
55308;SDS011;44028;51.358;19.876;2022-12-05T13:51:54;115.70;;;44.42;;
55308;SDS011;44028;51.358;19.876;2022-12-05T13:54:30;107.85;;;43.35;;
55308;SDS011;44028;51.358;19.876;2022-12-05T13:56:59;343.13;;;94.97;;
55308;SDS011;44028;51.358;19.876;2022-12-05T14:04:52;83.88;;;34.53;;
55308;SDS011;44028;51.358;19.876;2022-12-05T14:07:41;68.75;;;27.52;;
55308;SDS011;44028;51.358;19.876;2022-12-05T14:10:06;99.95;;;37.17;;
55308;SDS011;44028;51.358;19.876;2022-12-05T14:17:56;117.63;;;44.75;;
55308;SDS011;44028;51.358;19.876;2022-12-05T14:20:41;124.95;;;52.20;;
55308;SDS011;44028;51.358;19.876;2022-12-05T14:26:05;95.07;;;42.08;;
55308;SDS011;44028;51.358;19.876;2022-12-05T14:36:28;183.35;;;52.88;;
55308;SDS011;44028;51.358;19.876;2022-12-05T14:38:56;189.40;;;55.75;;
55308;SDS011;44028;51.358;19.876;2022-12-05T14:41:25;206.48;;;68.35;;
55308;SDS011;44028;51.358;19.876;2022-12-05T14:43:52;141.27;;;44.28;;
55308;SDS011;44028;51.358;19.876;2022-12-05T14:46:30;246.80;;;72.30;;
55308;SDS011;44028;51.358;19.876;2022-12-05T14:48:58;123.38;;;50.30;;
55308;SDS011;44028;51.358;19.876;2022-12-05T14:51:53;245.85;;;79.57;;
55308;SDS011;44028;51.358;19.876;2022-12-05T14:54:21;221.00;;;75.05;;
55308;SDS011;44028;51.358;19.876;2022-12-05T14:56:49;131.18;;;55.72;;
55308;SDS011;44028;51.358;19.876;2022-12-05T15:02:21;148.18;;;58.05;;
55308;SDS011;44028;51.358;19.876;2022-12-05T15:04:51;70.43;;;32.65;;
55308;SDS011;44028;51.358;19.876;2022-12-05T15:07:19;162.27;;;52.53;;
55308;SDS011;44028;51.358;19.876;2022-12-05T15:12:33;84.80;;;39.47;;
55308;SDS011;44028;51.358;19.876;2022-12-05T15:17:46;67.50;;;30.70;;
55308;SDS011;44028;51.358;19.876;2022-12-05T15:22:55;96.47;;;41.85;;
55308;SDS011;44028;51.358;19.876;2022-12-05T15:25:31;104.10;;;41.08;;
55308;SDS011;44028;51.358;19.876;2022-12-05T15:28:03;120.05;;;49.00;;
55308;SDS011;44028;51.358;19.876;2022-12-05T15:30:31;127.13;;;51.13;;
55308;SDS011;44028;51.358;19.876;2022-12-05T15:32:59;84.18;;;38.97;;
55308;SDS011;44028;51.358;19.876;2022-12-05T15:35:28;92.95;;;41.42;;
55308;SDS011;44028;51.358;19.876;2022-12-05T15:38:00;123.20;;;52.03;;
55308;SDS011;44028;51.358;19.876;2022-12-05T15:40:33;89.82;;;37.63;;
55308;SDS011;44028;51.358;19.876;2022-12-05T15:43:48;194.88;;;67.13;;
55308;SDS011;44028;51.358;19.876;2022-12-05T15:45:49;106.60;;;45.13;;
55308;SDS011;44028;51.358;19.876;2022-12-05T15:48:16;140.35;;;52.78;;
55308;SDS011;44028;51.358;19.876;2022-12-05T15:50:49;86.93;;;37.22;;
55308;SDS011;44028;51.358;19.876;2022-12-05T15:53:17;138.48;;;53.63;;
55308;SDS011;44028;51.358;19.876;2022-12-05T15:55:53;132.48;;;50.90;;
55308;SDS011;44028;51.358;19.876;2022-12-05T16:00:47;105.22;;;46.03;;
55308;SDS011;44028;51.358;19.876;2022-12-05T16:03:17;132.43;;;56.60;;
55308;SDS011;44028;51.358;19.876;2022-12-05T16:05:51;93.97;;;41.00;;
55308;SDS011;44028;51.358;19.876;2022-12-05T16:08:20;119.30;;;51.13;;
55308;SDS011;44028;51.358;19.876;2022-12-05T16:10:47;109.45;;;49.95;;
55308;SDS011;44028;51.358;19.876;2022-12-05T16:13:14;111.03;;;48.55;;
55308;SDS011;44028;51.358;19.876;2022-12-05T16:15:45;88.20;;;36.75;;
55308;SDS011;44028;51.358;19.876;2022-12-05T16:20:51;98.20;;;46.13;;
55308;SDS011;44028;51.358;19.876;2022-12-05T16:23:35;101.63;;;39.85;;
55308;SDS011;44028;51.358;19.876;2022-12-05T16:26:09;115.35;;;47.95;;
55308;SDS011;44028;51.358;19.876;2022-12-05T16:28:55;79.22;;;35.42;;
55308;SDS011;44028;51.358;19.876;2022-12-05T16:31:21;87.05;;;36.35;;
55308;SDS011;44028;51.358;19.876;2022-12-05T16:33:57;79.45;;;32.25;;
55308;SDS011;44028;51.358;19.876;2022-12-05T16:36:24;76.70;;;32.20;;
55308;SDS011;44028;51.358;19.876;2022-12-05T16:38:58;77.85;;;34.72;;
55308;SDS011;44028;51.358;19.876;2022-12-05T16:41:32;84.97;;;33.75;;
55308;SDS011;44028;51.358;19.876;2022-12-05T16:43:59;76.70;;;33.60;;
55308;SDS011;44028;51.358;19.876;2022-12-05T16:46:37;76.97;;;34.17;;
55308;SDS011;44028;51.358;19.876;2022-12-05T16:49:17;80.15;;;34.75;;
55308;SDS011;44028;51.358;19.876;2022-12-05T16:51:51;110.28;;;45.65;;
55308;SDS011;44028;51.358;19.876;2022-12-05T16:54:18;93.93;;;39.03;;
55308;SDS011;44028;51.358;19.876;2022-12-05T16:56:45;98.68;;;40.05;;
55308;SDS011;44028;51.358;19.876;2022-12-05T16:59:22;132.77;;;52.28;;
55308;SDS011;44028;51.358;19.876;2022-12-05T17:01:50;109.50;;;46.35;;